sensor_id;sensor_type;location;lat;lon;timestamp;P1;durP1;ratioP1;P2;durP2;ratioP2
16737;SDS011;17906;47.684;10.806;2022-11-15T00:02:11;2.00;;;1.27;;
16737;SDS011;17906;47.684;10.806;2022-11-15T00:04:39;1.93;;;1.03;;
16737;SDS011;17906;47.684;10.806;2022-11-15T00:07:05;1.33;;;1.00;;
16737;SDS011;17906;47.684;10.806;2022-11-15T00:09:32;2.10;;;1.07;;
16737;SDS011;17906;47.684;10.806;2022-11-15T00:11:58;2.67;;;1.20;;
16737;SDS011;17906;47.684;10.806;2022-11-15T00:14:25;1.23;;;1.00;;
16737;SDS011;17906;47.684;10.806;2022-11-15T00:16:51;1.63;;;1.30;;
16737;SDS011;17906;47.684;10.806;2022-11-15T00:19:18;2.33;;;1.10;;
16737;SDS011;17906;47.684;10.806;2022-11-15T00:21:46;1.83;;;1.10;;
16737;SDS011;17906;47.684;10.806;2022-11-15T00:24:12;1.73;;;1.10;;
16737;SDS011;17906;47.684;10.806;2022-11-15T00:26:39;3.17;;;1.07;;
16737;SDS011;17906;47.684;10.806;2022-11-15T00:29:06;5.23;;;1.20;;
16737;SDS011;17906;47.684;10.806;2022-11-15T00:31:32;2.03;;;1.10;;
16737;SDS011;17906;47.684;10.806;2022-11-15T00:33:59;2.43;;;1.37;;
16737;SDS011;17906;47.684;10.806;2022-11-15T00:36:26;1.73;;;0.97;;
16737;SDS011;17906;47.684;10.806;2022-11-15T00:38:53;1.53;;;1.00;;
16737;SDS011;17906;47.684;10.806;2022-11-15T00:41:20;2.03;;;1.17;;
16737;SDS011;17906;47.684;10.806;2022-11-15T00:43:47;1.63;;;1.20;;
16737;SDS011;17906;47.684;10.806;2022-11-15T00:46:13;1.83;;;1.10;;
16737;SDS011;17906;47.684;10.806;2022-11-15T00:48:40;3.00;;;1.17;;
16737;SDS011;17906;47.684;10.806;2022-11-15T00:51:07;2.60;;;1.20;;
16737;SDS011;17906;47.684;10.806;2022-11-15T00:53:33;2.57;;;1.20;;
16737;SDS011;17906;47.684;10.806;2022-11-15T00:56:02;3.67;;;1.10;;
16737;SDS011;17906;47.684;10.806;2022-11-15T00:58:28;1.80;;;1.13;;
16737;SDS011;17906;47.684;10.806;2022-11-15T01:00:55;3.33;;;1.20;;
16737;SDS011;17906;47.684;10.806;2022-11-15T01:03:22;1.87;;;1.00;;
16737;SDS011;17906;47.684;10.806;2022-11-15T01:05:48;2.13;;;1.23;;
16737;SDS011;17906;47.684;10.806;2022-11-15T01:08:15;2.40;;;1.10;;
16737;SDS011;17906;47.684;10.806;2022-11-15T01:10:42;4.00;;;1.00;;
16737;SDS011;17906;47.684;10.806;2022-11-15T01:13:10;2.13;;;1.30;;
16737;SDS011;17906;47.684;10.806;2022-11-15T01:15:38;1.47;;;1.20;;
16737;SDS011;17906;47.684;10.806;2022-11-15T01:18:06;4.53;;;1.20;;
16737;SDS011;17906;47.684;10.806;2022-11-15T01:20:33;2.03;;;1.13;;
16737;SDS011;17906;47.684;10.806;2022-11-15T01:22:59;3.00;;;1.20;;
16737;SDS011;17906;47.684;10.806;2022-11-15T01:25:26;2.40;;;1.13;;
16737;SDS011;17906;47.684;10.806;2022-11-15T01:27:53;2.17;;;1.10;;
16737;SDS011;17906;47.684;10.806;2022-11-15T01:30:21;1.60;;;1.10;;
16737;SDS011;17906;47.684;10.806;2022-11-15T01:32:47;1.27;;;0.90;;
16737;SDS011;17906;47.684;10.806;2022-11-15T01:35:14;2.50;;;1.10;;
16737;SDS011;17906;47.684;10.806;2022-11-15T01:37:40;1.43;;;0.93;;
16737;SDS011;17906;47.684;10.806;2022-11-15T01:40:07;1.40;;;0.90;;
16737;SDS011;17906;47.684;10.806;2022-11-15T01:42:35;4.70;;;1.07;;
16737;SDS011;17906;47.684;10.806;2022-11-15T01:45:01;2.10;;;1.23;;
16737;SDS011;17906;47.684;10.806;2022-11-15T01:47:31;2.00;;;1.00;;
16737;SDS011;17906;47.684;10.806;2022-11-15T01:50:02;2.33;;;1.10;;
16737;SDS011;17906;47.684;10.806;2022-11-15T01:52:32;3.50;;;1.10;;
16737;SDS011;17906;47.684;10.806;2022-11-15T01:55:02;1.23;;;0.90;;
16737;SDS011;17906;47.684;10.806;2022-11-15T01:57:31;1.70;;;1.00;;
16737;SDS011;17906;47.684;10.806;2022-11-15T01:59:58;1.00;;;0.80;;
16737;SDS011;17906;47.684;10.806;2022-11-15T02:02:29;2.03;;;0.97;;
16737;SDS011;17906;47.684;10.806;2022-11-15T02:04:56;2.47;;;1.00;;
16737;SDS011;17906;47.684;10.806;2022-11-15T02:07:23;2.53;;;1.33;;
16737;SDS011;17906;47.684;10.806;2022-11-15T02:09:50;1.60;;;0.83;;
16737;SDS011;17906;47.684;10.806;2022-11-15T02:12:18;1.63;;;0.80;;
16737;SDS011;17906;47.684;10.806;2022-11-15T02:14:47;1.90;;;1.10;;
16737;SDS011;17906;47.684;10.806;2022-11-15T02:26:25;1.73;;;1.20;;
16737;SDS011;17906;47.684;10.806;2022-11-15T02:29:20;1.53;;;0.93;;
16737;SDS011;17906;47.684;10.806;2022-11-15T02:32:03;1.60;;;0.90;;
16737;SDS011;17906;47.684;10.806;2022-11-15T02:34:39;1.60;;;1.17;;
16737;SDS011;17906;47.684;10.806;2022-11-15T02:37:15;1.73;;;1.10;;
16737;SDS011;17906;47.684;10.806;2022-11-15T02:39:46;2.17;;;1.10;;
16737;SDS011;17906;47.684;10.806;2022-11-15T02:42:19;2.60;;;1.10;;
16737;SDS011;17906;47.684;10.806;2022-11-15T02:45:17;2.53;;;1.40;;
16737;SDS011;17906;47.684;10.806;2022-11-15T02:47:49;2.30;;;1.20;;
16737;SDS011;17906;47.684;10.806;2022-11-15T02:50:21;1.87;;;1.20;;
16737;SDS011;17906;47.684;10.806;2022-11-15T02:52:52;2.20;;;1.20;;
16737;SDS011;17906;47.684;10.806;2022-11-15T02:55:26;2.00;;;1.20;;
16737;SDS011;17906;47.684;10.806;2022-11-15T02:57:56;2.63;;;1.00;;
16737;SDS011;17906;47.684;10.806;2022-11-15T03:00:32;2.50;;;1.10;;
16737;SDS011;17906;47.684;10.806;2022-11-15T03:03:12;2.00;;;1.30;;
16737;SDS011;17906;47.684;10.806;2022-11-15T03:05:51;5.00;;;1.40;;
16737;SDS011;17906;47.684;10.806;2022-11-15T03:08:26;2.63;;;1.50;;
16737;SDS011;17906;47.684;10.806;2022-11-15T03:10:59;2.43;;;1.43;;
16737;SDS011;17906;47.684;10.806;2022-11-15T03:13:33;3.07;;;1.50;;
16737;SDS011;17906;47.684;10.806;2022-11-15T03:16:08;3.13;;;1.43;;
16737;SDS011;17906;47.684;10.806;2022-11-15T03:18:43;2.13;;;1.40;;
16737;SDS011;17906;47.684;10.806;2022-11-15T03:21:13;1.93;;;1.10;;
16737;SDS011;17906;47.684;10.806;2022-11-15T03:23:45;2.53;;;1.30;;
16737;SDS011;17906;47.684;10.806;2022-11-15T03:26:14;1.33;;;0.90;;
16737;SDS011;17906;47.684;10.806;2022-11-15T03:28:44;1.93;;;1.00;;
16737;SDS011;17906;47.684;10.806;2022-11-15T03:31:16;1.63;;;0.83;;
16737;SDS011;17906;47.684;10.806;2022-11-15T03:34:07;1.40;;;1.00;;
16737;SDS011;17906;47.684;10.806;2022-11-15T03:36:41;1.57;;;0.80;;
16737;SDS011;17906;47.684;10.806;2022-11-15T03:39:08;1.73;;;0.83;;
16737;SDS011;17906;47.684;10.806;2022-11-15T03:41:35;1.63;;;1.10;;
16737;SDS011;17906;47.684;10.806;2022-11-15T03:44:08;1.30;;;0.90;;
16737;SDS011;17906;47.684;10.806;2022-11-15T03:46:43;1.93;;;1.00;;
16737;SDS011;17906;47.684;10.806;2022-11-15T03:49:15;2.10;;;1.33;;
16737;SDS011;17906;47.684;10.806;2022-11-15T03:51:46;2.23;;;1.20;;
16737;SDS011;17906;47.684;10.806;2022-11-15T03:54:12;3.53;;;1.20;;
16737;SDS011;17906;47.684;10.806;2022-11-15T03:56:39;1.67;;;0.93;;
16737;SDS011;17906;47.684;10.806;2022-11-15T03:59:06;1.47;;;0.80;;
16737;SDS011;17906;47.684;10.806;2022-11-15T04:01:32;2.60;;;0.97;;
16737;SDS011;17906;47.684;10.806;2022-11-15T04:03:59;2.17;;;0.93;;
16737;SDS011;17906;47.684;10.806;2022-11-15T04:06:27;1.80;;;1.10;;
16737;SDS011;17906;47.684;10.806;2022-11-15T04:08:54;1.47;;;0.90;;
16737;SDS011;17906;47.684;10.806;2022-11-15T04:11:20;2.83;;;0.90;;
16737;SDS011;17906;47.684;10.806;2022-11-15T04:13:47;1.37;;;0.80;;
16737;SDS011;17906;47.684;10.806;2022-11-15T04:16:13;2.03;;;1.20;;
16737;SDS011;17906;47.684;10.806;2022-11-15T04:18:40;2.23;;;1.10;;
16737;SDS011;17906;47.684;10.806;2022-11-15T04:21:07;1.63;;;0.93;;
16737;SDS011;17906;47.684;10.806;2022-11-15T04:23:53;1.60;;;1.10;;
16737;SDS011;17906;47.684;10.806;2022-11-15T04:26:37;5.37;;;1.23;;
16737;SDS011;17906;47.684;10.806;2022-11-15T04:29:03;1.57;;;0.83;;
16737;SDS011;17906;47.684;10.806;2022-11-15T04:31:59;1.83;;;0.80;;
16737;SDS011;17906;47.684;10.806;2022-11-15T04:34:26;2.27;;;0.80;;
16737;SDS011;17906;47.684;10.806;2022-11-15T04:36:52;3.30;;;1.10;;
16737;SDS011;17906;47.684;10.806;2022-11-15T04:39:38;2.07;;;1.30;;
16737;SDS011;17906;47.684;10.806;2022-11-15T04:42:04;2.17;;;0.90;;
16737;SDS011;17906;47.684;10.806;2022-11-15T04:44:31;1.33;;;0.90;;
16737;SDS011;17906;47.684;10.806;2022-11-15T04:46:58;1.93;;;1.10;;
16737;SDS011;17906;47.684;10.806;2022-11-15T04:49:24;1.20;;;0.80;;
16737;SDS011;17906;47.684;10.806;2022-11-15T04:51:51;1.40;;;0.90;;
16737;SDS011;17906;47.684;10.806;2022-11-15T04:54:18;1.60;;;0.90;;
16737;SDS011;17906;47.684;10.806;2022-11-15T04:56:46;5.87;;;0.97;;
16737;SDS011;17906;47.684;10.806;2022-11-15T04:59:13;2.47;;;1.07;;
16737;SDS011;17906;47.684;10.806;2022-11-15T05:01:39;1.57;;;0.90;;
16737;SDS011;17906;47.684;10.806;2022-11-15T05:04:06;1.43;;;0.83;;
16737;SDS011;17906;47.684;10.806;2022-11-15T05:06:44;3.97;;;1.00;;
16737;SDS011;17906;47.684;10.806;2022-11-15T05:09:11;1.90;;;0.73;;
16737;SDS011;17906;47.684;10.806;2022-11-15T05:11:39;1.70;;;0.87;;
16737;SDS011;17906;47.684;10.806;2022-11-15T05:14:07;2.23;;;1.00;;
16737;SDS011;17906;47.684;10.806;2022-11-15T05:16:34;1.67;;;0.90;;
16737;SDS011;17906;47.684;10.806;2022-11-15T05:19:01;2.80;;;1.13;;
16737;SDS011;17906;47.684;10.806;2022-11-15T05:21:28;2.20;;;0.97;;
16737;SDS011;17906;47.684;10.806;2022-11-15T05:23:55;2.93;;;0.87;;
16737;SDS011;17906;47.684;10.806;2022-11-15T05:26:21;2.77;;;0.87;;
16737;SDS011;17906;47.684;10.806;2022-11-15T05:28:51;1.90;;;0.87;;
16737;SDS011;17906;47.684;10.806;2022-11-15T05:31:20;4.73;;;1.27;;
16737;SDS011;17906;47.684;10.806;2022-11-15T05:33:48;1.93;;;1.00;;
16737;SDS011;17906;47.684;10.806;2022-11-15T05:36:17;3.53;;;1.13;;
16737;SDS011;17906;47.684;10.806;2022-11-15T05:38:47;4.70;;;1.40;;
16737;SDS011;17906;47.684;10.806;2022-11-15T05:41:15;1.50;;;0.83;;
16737;SDS011;17906;47.684;10.806;2022-11-15T05:43:45;4.03;;;1.10;;
16737;SDS011;17906;47.684;10.806;2022-11-15T05:46:14;3.23;;;1.63;;
16737;SDS011;17906;47.684;10.806;2022-11-15T05:48:43;3.00;;;1.40;;
16737;SDS011;17906;47.684;10.806;2022-11-15T05:51:13;3.70;;;1.40;;
16737;SDS011;17906;47.684;10.806;2022-11-15T05:53:42;3.50;;;1.30;;
16737;SDS011;17906;47.684;10.806;2022-11-15T05:56:10;3.40;;;1.50;;
16737;SDS011;17906;47.684;10.806;2022-11-15T05:58:37;6.10;;;2.53;;
16737;SDS011;17906;47.684;10.806;2022-11-15T06:01:04;6.63;;;2.90;;
16737;SDS011;17906;47.684;10.806;2022-11-15T06:03:31;6.00;;;2.90;;
16737;SDS011;17906;47.684;10.806;2022-11-15T06:05:59;9.03;;;3.80;;
16737;SDS011;17906;47.684;10.806;2022-11-15T06:08:25;5.53;;;2.77;;
16737;SDS011;17906;47.684;10.806;2022-11-15T06:10:52;4.93;;;2.30;;
16737;SDS011;17906;47.684;10.806;2022-11-15T06:13:19;4.30;;;1.50;;
16737;SDS011;17906;47.684;10.806;2022-11-15T06:15:46;3.67;;;1.40;;
16737;SDS011;17906;47.684;10.806;2022-11-15T06:18:12;2.57;;;1.27;;
16737;SDS011;17906;47.684;10.806;2022-11-15T06:20:39;2.47;;;1.40;;
16737;SDS011;17906;47.684;10.806;2022-11-15T06:23:07;4.47;;;1.53;;
16737;SDS011;17906;47.684;10.806;2022-11-15T06:25:33;3.23;;;1.73;;
16737;SDS011;17906;47.684;10.806;2022-11-15T06:28:00;4.07;;;1.90;;
16737;SDS011;17906;47.684;10.806;2022-11-15T06:30:27;3.30;;;1.70;;
16737;SDS011;17906;47.684;10.806;2022-11-15T06:32:58;2.47;;;1.20;;
16737;SDS011;17906;47.684;10.806;2022-11-15T06:35:26;3.93;;;1.50;;
16737;SDS011;17906;47.684;10.806;2022-11-15T06:37:53;4.53;;;1.80;;
16737;SDS011;17906;47.684;10.806;2022-11-15T06:40:21;4.23;;;2.00;;
16737;SDS011;17906;47.684;10.806;2022-11-15T06:42:47;3.17;;;1.53;;
16737;SDS011;17906;47.684;10.806;2022-11-15T06:45:14;9.33;;;1.90;;
16737;SDS011;17906;47.684;10.806;2022-11-15T06:47:44;5.73;;;2.30;;
16737;SDS011;17906;47.684;10.806;2022-11-15T06:50:11;7.33;;;3.23;;
16737;SDS011;17906;47.684;10.806;2022-11-15T06:52:38;8.30;;;4.37;;
16737;SDS011;17906;47.684;10.806;2022-11-15T06:55:05;8.30;;;3.13;;
16737;SDS011;17906;47.684;10.806;2022-11-15T06:57:34;6.50;;;3.50;;
16737;SDS011;17906;47.684;10.806;2022-11-15T07:00:02;2.80;;;1.27;;
16737;SDS011;17906;47.684;10.806;2022-11-15T07:02:29;5.90;;;2.70;;
16737;SDS011;17906;47.684;10.806;2022-11-15T07:04:56;5.13;;;2.53;;
16737;SDS011;17906;47.684;10.806;2022-11-15T07:07:22;11.27;;;7.87;;
16737;SDS011;17906;47.684;10.806;2022-11-15T07:09:49;7.60;;;4.77;;
16737;SDS011;17906;47.684;10.806;2022-11-15T07:12:16;8.03;;;5.00;;
16737;SDS011;17906;47.684;10.806;2022-11-15T07:14:44;7.80;;;4.73;;
16737;SDS011;17906;47.684;10.806;2022-11-15T07:17:11;11.33;;;5.63;;
16737;SDS011;17906;47.684;10.806;2022-11-15T07:19:37;9.30;;;5.37;;
16737;SDS011;17906;47.684;10.806;2022-11-15T07:22:04;4.77;;;2.40;;
16737;SDS011;17906;47.684;10.806;2022-11-15T07:24:31;3.47;;;1.63;;
16737;SDS011;17906;47.684;10.806;2022-11-15T07:26:57;3.43;;;1.90;;
16737;SDS011;17906;47.684;10.806;2022-11-15T07:29:24;2.97;;;1.60;;
16737;SDS011;17906;47.684;10.806;2022-11-15T07:31:52;3.20;;;1.77;;
16737;SDS011;17906;47.684;10.806;2022-11-15T07:34:18;6.27;;;2.00;;
16737;SDS011;17906;47.684;10.806;2022-11-15T07:36:45;2.73;;;1.60;;
16737;SDS011;17906;47.684;10.806;2022-11-15T07:39:11;6.93;;;3.20;;
16737;SDS011;17906;47.684;10.806;2022-11-15T07:41:39;6.67;;;3.03;;
16737;SDS011;17906;47.684;10.806;2022-11-15T07:44:05;4.20;;;1.90;;
16737;SDS011;17906;47.684;10.806;2022-11-15T07:46:32;3.50;;;1.87;;
16737;SDS011;17906;47.684;10.806;2022-11-15T07:49:00;8.50;;;3.13;;
16737;SDS011;17906;47.684;10.806;2022-11-15T07:51:27;6.53;;;2.63;;
16737;SDS011;17906;47.684;10.806;2022-11-15T07:53:54;6.37;;;3.00;;
16737;SDS011;17906;47.684;10.806;2022-11-15T07:56:20;4.37;;;2.30;;
16737;SDS011;17906;47.684;10.806;2022-11-15T07:58:47;8.90;;;1.97;;
16737;SDS011;17906;47.684;10.806;2022-11-15T08:01:15;3.93;;;2.20;;
16737;SDS011;17906;47.684;10.806;2022-11-15T08:03:41;5.17;;;2.00;;
16737;SDS011;17906;47.684;10.806;2022-11-15T08:06:09;6.00;;;2.80;;
16737;SDS011;17906;47.684;10.806;2022-11-15T08:08:36;8.07;;;2.63;;
16737;SDS011;17906;47.684;10.806;2022-11-15T08:11:03;3.10;;;1.70;;
16737;SDS011;17906;47.684;10.806;2022-11-15T08:13:30;5.20;;;2.23;;
16737;SDS011;17906;47.684;10.806;2022-11-15T08:15:59;4.87;;;2.13;;
16737;SDS011;17906;47.684;10.806;2022-11-15T08:18:26;3.17;;;1.90;;
16737;SDS011;17906;47.684;10.806;2022-11-15T08:20:57;9.50;;;5.23;;
16737;SDS011;17906;47.684;10.806;2022-11-15T08:23:27;10.43;;;4.80;;
16737;SDS011;17906;47.684;10.806;2022-11-15T08:25:58;9.63;;;3.70;;
16737;SDS011;17906;47.684;10.806;2022-11-15T08:28:26;6.73;;;3.77;;
16737;SDS011;17906;47.684;10.806;2022-11-15T08:30:52;5.77;;;3.13;;
16737;SDS011;17906;47.684;10.806;2022-11-15T08:33:19;11.07;;;3.63;;
16737;SDS011;17906;47.684;10.806;2022-11-15T08:35:46;7.83;;;3.70;;
16737;SDS011;17906;47.684;10.806;2022-11-15T08:38:12;8.87;;;4.27;;
16737;SDS011;17906;47.684;10.806;2022-11-15T08:40:40;7.47;;;4.20;;
16737;SDS011;17906;47.684;10.806;2022-11-15T08:43:07;9.33;;;4.47;;
16737;SDS011;17906;47.684;10.806;2022-11-15T08:45:34;6.57;;;4.17;;
16737;SDS011;17906;47.684;10.806;2022-11-15T08:48:02;6.97;;;4.17;;
16737;SDS011;17906;47.684;10.806;2022-11-15T08:50:29;5.57;;;3.60;;
16737;SDS011;17906;47.684;10.806;2022-11-15T08:52:55;7.37;;;3.70;;
16737;SDS011;17906;47.684;10.806;2022-11-15T08:55:22;8.67;;;4.20;;
16737;SDS011;17906;47.684;10.806;2022-11-15T08:57:50;7.37;;;3.73;;
16737;SDS011;17906;47.684;10.806;2022-11-15T09:00:17;5.40;;;3.63;;
16737;SDS011;17906;47.684;10.806;2022-11-15T09:02:45;5.93;;;3.60;;
16737;SDS011;17906;47.684;10.806;2022-11-15T09:05:12;6.07;;;3.60;;
16737;SDS011;17906;47.684;10.806;2022-11-15T09:07:38;10.33;;;4.20;;
16737;SDS011;17906;47.684;10.806;2022-11-15T09:10:05;7.87;;;3.90;;
16737;SDS011;17906;47.684;10.806;2022-11-15T09:12:32;8.97;;;4.00;;
16737;SDS011;17906;47.684;10.806;2022-11-15T09:15:00;7.47;;;4.90;;
16737;SDS011;17906;47.684;10.806;2022-11-15T09:17:27;10.80;;;4.90;;
16737;SDS011;17906;47.684;10.806;2022-11-15T09:19:53;9.27;;;5.57;;
16737;SDS011;17906;47.684;10.806;2022-11-15T09:22:20;8.00;;;5.03;;
16737;SDS011;17906;47.684;10.806;2022-11-15T09:24:46;11.70;;;5.47;;
16737;SDS011;17906;47.684;10.806;2022-11-15T09:27:13;10.33;;;4.70;;
16737;SDS011;17906;47.684;10.806;2022-11-15T09:29:40;9.57;;;4.57;;
16737;SDS011;17906;47.684;10.806;2022-11-15T09:32:08;6.77;;;3.37;;
16737;SDS011;17906;47.684;10.806;2022-11-15T09:34:35;6.90;;;3.97;;
16737;SDS011;17906;47.684;10.806;2022-11-15T09:37:01;5.37;;;2.90;;
16737;SDS011;17906;47.684;10.806;2022-11-15T09:39:28;2.55;;;1.80;;
16737;SDS011;17906;47.684;10.806;2022-11-15T09:44:59;5.00;;;2.70;;
16737;SDS011;17906;47.684;10.806;2022-11-15T09:50:45;4.07;;;2.20;;
16737;SDS011;17906;47.684;10.806;2022-11-15T09:53:17;3.15;;;2.25;;
16737;SDS011;17906;47.684;10.806;2022-11-15T09:55:53;4.55;;;2.30;;
16737;SDS011;17906;47.684;10.806;2022-11-15T09:58:26;3.88;;;2.35;;
16737;SDS011;17906;47.684;10.806;2022-11-15T10:00:59;5.15;;;2.65;;
16737;SDS011;17906;47.684;10.806;2022-11-15T10:03:33;4.45;;;2.33;;
16737;SDS011;17906;47.684;10.806;2022-11-15T10:06:01;6.25;;;2.45;;
16737;SDS011;17906;47.684;10.806;2022-11-15T10:08:37;7.00;;;2.47;;
16737;SDS011;17906;47.684;10.806;2022-11-15T10:11:15;2.53;;;1.73;;
16737;SDS011;17906;47.684;10.806;2022-11-15T10:13:44;4.05;;;1.80;;
16737;SDS011;17906;47.684;10.806;2022-11-15T10:16:16;3.58;;;2.10;;
16737;SDS011;17906;47.684;10.806;2022-11-15T10:19:01;2.53;;;1.75;;
16737;SDS011;17906;47.684;10.806;2022-11-15T10:21:35;2.55;;;1.63;;
16737;SDS011;17906;47.684;10.806;2022-11-15T10:24:12;1.95;;;1.33;;
16737;SDS011;17906;47.684;10.806;2022-11-15T10:26:45;4.40;;;1.70;;
16737;SDS011;17906;47.684;10.806;2022-11-15T10:29:17;4.50;;;1.58;;
16737;SDS011;17906;47.684;10.806;2022-11-15T10:31:44;7.30;;;2.30;;
16737;SDS011;17906;47.684;10.806;2022-11-15T10:34:13;7.85;;;1.70;;
16737;SDS011;17906;47.684;10.806;2022-11-15T10:36:43;3.35;;;1.40;;
16737;SDS011;17906;47.684;10.806;2022-11-15T10:39:12;2.80;;;1.30;;
16737;SDS011;17906;47.684;10.806;2022-11-15T10:41:40;2.13;;;1.35;;
16737;SDS011;17906;47.684;10.806;2022-11-15T10:44:16;1.80;;;1.17;;
16737;SDS011;17906;47.684;10.806;2022-11-15T10:46:46;2.15;;;1.45;;
16737;SDS011;17906;47.684;10.806;2022-11-15T10:49:17;4.70;;;1.52;;
16737;SDS011;17906;47.684;10.806;2022-11-15T10:51:46;4.55;;;1.50;;
16737;SDS011;17906;47.684;10.806;2022-11-15T10:54:15;1.52;;;1.20;;
16737;SDS011;17906;47.684;10.806;2022-11-15T10:56:48;2.85;;;1.63;;
16737;SDS011;17906;47.684;10.806;2022-11-15T10:59:20;4.82;;;1.40;;
16737;SDS011;17906;47.684;10.806;2022-11-15T11:01:52;2.45;;;1.48;;
16737;SDS011;17906;47.684;10.806;2022-11-15T11:04:21;3.20;;;1.42;;
16737;SDS011;17906;47.684;10.806;2022-11-15T11:06:50;2.83;;;1.50;;
16737;SDS011;17906;47.684;10.806;2022-11-15T11:09:23;3.30;;;1.35;;
16737;SDS011;17906;47.684;10.806;2022-11-15T11:11:55;3.42;;;1.45;;
16737;SDS011;17906;47.684;10.806;2022-11-15T11:14:22;3.13;;;1.55;;
16737;SDS011;17906;47.684;10.806;2022-11-15T11:16:52;2.00;;;1.08;;
16737;SDS011;17906;47.684;10.806;2022-11-15T11:22:16;2.30;;;1.17;;
16737;SDS011;17906;47.684;10.806;2022-11-15T11:24:51;3.17;;;1.25;;
16737;SDS011;17906;47.684;10.806;2022-11-15T11:27:31;3.95;;;1.20;;
16737;SDS011;17906;47.684;10.806;2022-11-15T11:30:07;3.05;;;1.65;;
16737;SDS011;17906;47.684;10.806;2022-11-15T11:32:43;3.03;;;1.33;;
16737;SDS011;17906;47.684;10.806;2022-11-15T11:35:19;2.22;;;1.17;;
16737;SDS011;17906;47.684;10.806;2022-11-15T11:37:51;1.25;;;0.80;;
16737;SDS011;17906;47.684;10.806;2022-11-15T17:58:20;5.70;;;2.50;;
16737;SDS011;17906;47.684;10.806;2022-11-15T18:07:43;6.80;;;2.63;;
16737;SDS011;17906;47.684;10.806;2022-11-15T18:24:53;7.70;;;2.37;;
16737;SDS011;17906;47.684;10.806;2022-11-15T18:27:19;7.43;;;3.90;;
16737;SDS011;17906;47.684;10.806;2022-11-15T18:29:46;11.75;;;5.43;;
16737;SDS011;17906;47.684;10.806;2022-11-15T18:32:13;6.23;;;3.67;;
16737;SDS011;17906;47.684;10.806;2022-11-15T18:34:41;5.80;;;3.00;;
16737;SDS011;17906;47.684;10.806;2022-11-15T18:37:08;5.17;;;2.97;;
16737;SDS011;17906;47.684;10.806;2022-11-15T18:39:35;6.13;;;3.43;;
16737;SDS011;17906;47.684;10.806;2022-11-15T18:42:03;7.50;;;3.83;;
16737;SDS011;17906;47.684;10.806;2022-11-15T18:44:30;10.30;;;3.67;;
16737;SDS011;17906;47.684;10.806;2022-11-15T18:46:57;7.57;;;4.20;;
16737;SDS011;17906;47.684;10.806;2022-11-15T18:49:24;10.30;;;5.67;;
16737;SDS011;17906;47.684;10.806;2022-11-15T18:51:50;10.77;;;5.53;;
16737;SDS011;17906;47.684;10.806;2022-11-15T18:54:17;11.43;;;6.40;;
16737;SDS011;17906;47.684;10.806;2022-11-15T18:56:43;13.70;;;7.33;;
16737;SDS011;17906;47.684;10.806;2022-11-15T18:59:12;16.67;;;9.10;;
16737;SDS011;17906;47.684;10.806;2022-11-15T19:01:41;12.50;;;7.50;;
16737;SDS011;17906;47.684;10.806;2022-11-15T19:04:11;10.97;;;6.07;;
16737;SDS011;17906;47.684;10.806;2022-11-15T19:06:40;8.47;;;5.20;;
16737;SDS011;17906;47.684;10.806;2022-11-15T19:09:08;10.13;;;5.60;;
16737;SDS011;17906;47.684;10.806;2022-11-15T19:11:36;9.33;;;4.60;;
16737;SDS011;17906;47.684;10.806;2022-11-15T19:14:05;9.17;;;4.43;;
16737;SDS011;17906;47.684;10.806;2022-11-15T19:16:35;7.93;;;3.80;;
16737;SDS011;17906;47.684;10.806;2022-11-15T19:19:05;10.63;;;4.47;;
16737;SDS011;17906;47.684;10.806;2022-11-15T19:21:35;10.07;;;5.37;;
16737;SDS011;17906;47.684;10.806;2022-11-15T19:24:02;8.97;;;4.10;;
16737;SDS011;17906;47.684;10.806;2022-11-15T19:26:29;7.00;;;4.10;;
16737;SDS011;17906;47.684;10.806;2022-11-15T19:28:56;6.07;;;3.53;;
16737;SDS011;17906;47.684;10.806;2022-11-15T19:31:24;9.67;;;3.70;;
16737;SDS011;17906;47.684;10.806;2022-11-15T19:33:54;8.73;;;4.10;;
16737;SDS011;17906;47.684;10.806;2022-11-15T19:36:24;6.50;;;3.63;;
16737;SDS011;17906;47.684;10.806;2022-11-15T19:38:53;7.17;;;3.17;;
16737;SDS011;17906;47.684;10.806;2022-11-15T19:41:21;6.87;;;3.60;;
16737;SDS011;17906;47.684;10.806;2022-11-15T19:43:49;5.90;;;3.70;;
16737;SDS011;17906;47.684;10.806;2022-11-15T19:46:17;6.40;;;3.30;;
16737;SDS011;17906;47.684;10.806;2022-11-15T19:48:45;7.83;;;3.70;;
16737;SDS011;17906;47.684;10.806;2022-11-15T19:51:15;6.43;;;3.80;;
16737;SDS011;17906;47.684;10.806;2022-11-15T19:53:43;8.17;;;4.07;;
16737;SDS011;17906;47.684;10.806;2022-11-15T19:56:11;8.60;;;4.90;;
16737;SDS011;17906;47.684;10.806;2022-11-15T19:58:39;7.87;;;4.40;;
16737;SDS011;17906;47.684;10.806;2022-11-15T20:01:07;12.20;;;6.03;;
16737;SDS011;17906;47.684;10.806;2022-11-15T20:03:38;7.87;;;4.23;;
16737;SDS011;17906;47.684;10.806;2022-11-15T20:06:05;8.90;;;4.30;;
16737;SDS011;17906;47.684;10.806;2022-11-15T20:08:34;6.30;;;3.83;;
16737;SDS011;17906;47.684;10.806;2022-11-15T20:11:02;6.03;;;3.87;;
16737;SDS011;17906;47.684;10.806;2022-11-15T20:13:30;7.43;;;3.70;;
16737;SDS011;17906;47.684;10.806;2022-11-15T20:15:57;6.37;;;3.33;;
16737;SDS011;17906;47.684;10.806;2022-11-15T20:18:24;6.33;;;3.43;;
16737;SDS011;17906;47.684;10.806;2022-11-15T20:20:52;5.90;;;3.30;;
16737;SDS011;17906;47.684;10.806;2022-11-15T20:23:20;8.10;;;4.30;;
16737;SDS011;17906;47.684;10.806;2022-11-15T20:25:49;6.20;;;2.83;;
16737;SDS011;17906;47.684;10.806;2022-11-15T20:28:17;5.83;;;3.37;;
16737;SDS011;17906;47.684;10.806;2022-11-15T20:30:45;5.73;;;2.83;;
16737;SDS011;17906;47.684;10.806;2022-11-15T20:33:13;5.70;;;2.80;;
16737;SDS011;17906;47.684;10.806;2022-11-15T20:35:41;5.30;;;2.80;;
16737;SDS011;17906;47.684;10.806;2022-11-15T20:38:08;4.53;;;2.73;;
16737;SDS011;17906;47.684;10.806;2022-11-15T20:40:36;7.60;;;3.40;;
16737;SDS011;17906;47.684;10.806;2022-11-15T20:43:05;7.07;;;2.83;;
16737;SDS011;17906;47.684;10.806;2022-11-15T20:45:31;6.83;;;2.93;;
16737;SDS011;17906;47.684;10.806;2022-11-15T20:47:58;5.90;;;3.30;;
16737;SDS011;17906;47.684;10.806;2022-11-15T20:50:25;6.63;;;3.17;;
16737;SDS011;17906;47.684;10.806;2022-11-15T20:52:52;6.43;;;3.20;;
16737;SDS011;17906;47.684;10.806;2022-11-15T20:55:21;4.70;;;3.03;;
16737;SDS011;17906;47.684;10.806;2022-11-15T20:57:47;6.90;;;3.10;;
16737;SDS011;17906;47.684;10.806;2022-11-15T21:00:16;4.20;;;2.80;;
16737;SDS011;17906;47.684;10.806;2022-11-15T21:02:46;6.13;;;3.53;;
16737;SDS011;17906;47.684;10.806;2022-11-15T21:05:12;6.37;;;3.07;;
16737;SDS011;17906;47.684;10.806;2022-11-15T21:07:39;5.70;;;3.40;;
16737;SDS011;17906;47.684;10.806;2022-11-15T21:10:07;7.57;;;3.30;;
16737;SDS011;17906;47.684;10.806;2022-11-15T21:12:52;5.33;;;3.23;;
16737;SDS011;17906;47.684;10.806;2022-11-15T21:15:20;5.03;;;2.87;;
16737;SDS011;17906;47.684;10.806;2022-11-15T21:17:47;5.53;;;3.00;;
16737;SDS011;17906;47.684;10.806;2022-11-15T21:20:13;5.43;;;3.40;;
16737;SDS011;17906;47.684;10.806;2022-11-15T21:22:40;5.50;;;3.20;;
16737;SDS011;17906;47.684;10.806;2022-11-15T21:25:07;7.80;;;3.20;;
16737;SDS011;17906;47.684;10.806;2022-11-15T21:27:34;7.93;;;3.40;;
16737;SDS011;17906;47.684;10.806;2022-11-15T21:30:01;5.30;;;3.33;;
16737;SDS011;17906;47.684;10.806;2022-11-15T21:32:30;4.57;;;2.70;;
16737;SDS011;17906;47.684;10.806;2022-11-15T21:34:57;6.83;;;3.80;;
16737;SDS011;17906;47.684;10.806;2022-11-15T21:37:24;6.70;;;3.90;;
16737;SDS011;17906;47.684;10.806;2022-11-15T21:39:51;4.87;;;2.83;;
16737;SDS011;17906;47.684;10.806;2022-11-15T21:42:17;6.00;;;3.53;;